createdAt,value
2023-02-14T00:00:49.895Z,19.10
2023-02-14T00:03:17.862Z,21.33
2023-02-14T00:05:44.781Z,22.42
2023-02-14T00:08:11.390Z,18.17
2023-02-14T00:10:39.058Z,18.33
2023-02-14T00:13:05.950Z,17.58
2023-02-14T00:15:35.578Z,16.73
2023-02-14T00:18:04.227Z,17.17
2023-02-14T00:20:30.645Z,16.77
2023-02-14T00:22:57.473Z,19.40
2023-02-14T00:25:26.450Z,20.17
2023-02-14T00:27:54.395Z,24.25
2023-02-14T00:30:21.009Z,23.67
2023-02-14T00:32:47.778Z,20.67
2023-02-14T00:35:15.172Z,20.77
2023-02-14T00:37:41.672Z,21.88
2023-02-14T00:40:09.085Z,24.35
2023-02-14T00:42:35.601Z,17.70
2023-02-14T00:45:02.190Z,22.10
2023-02-14T00:47:28.710Z,23.42
2023-02-14T00:49:59.330Z,20.75
2023-02-14T00:54:52.096Z,18.65
2023-02-14T00:57:18.518Z,21.02
2023-02-14T00:59:45.078Z,17.45
2023-02-14T01:02:11.670Z,19.85
2023-02-14T01:04:38.139Z,19.42
2023-02-14T01:07:06.080Z,17.25
2023-02-14T01:09:32.643Z,25.25
2023-02-14T01:12:01.862Z,25.42
2023-02-14T01:14:30.678Z,26.13
2023-02-14T01:16:57.141Z,26.52
2023-02-14T01:19:26.079Z,22.35
2023-02-14T01:21:52.595Z,33.92
2023-02-14T01:24:22.854Z,21.48
2023-02-14T01:26:49.365Z,26.13
2023-02-14T01:29:15.882Z,21.67
2023-02-14T01:31:44.931Z,27.85
2023-02-14T01:34:11.744Z,19.60
2023-02-14T01:36:39.783Z,23.70
2023-02-14T01:39:15.369Z,19.23
2023-02-14T01:41:48.516Z,16.60
2023-02-14T01:44:16.120Z,19.85
2023-02-14T01:46:44.546Z,19.08
2023-02-14T01:49:28.203Z,18.17
2023-02-14T01:52:10.935Z,18.02
2023-02-14T01:54:43.669Z,17.75
2023-02-14T01:57:14.506Z,18.05
2023-02-14T01:59:48.143Z,26.27
2023-02-14T02:02:15.989Z,15.82
2023-02-14T02:04:46.927Z,14.23
2023-02-14T02:07:23.262Z,21.50
2023-02-14T02:09:58.120Z,20.45
2023-02-14T02:12:24.842Z,29.42
2023-02-14T02:14:54.726Z,17.48
2023-02-14T02:17:36.926Z,17.27
2023-02-14T02:20:36.432Z,16.23
2023-02-14T02:23:57.166Z,18.02
2023-02-14T02:26:45.759Z,16.88
2023-02-14T02:29:46.413Z,21.42
2023-02-14T02:32:16.738Z,18.00
2023-02-14T02:35:09.313Z,18.92
2023-02-14T02:38:04.220Z,20.50
2023-02-14T02:41:09.523Z,21.42
2023-02-14T02:43:54.064Z,18.35
2023-02-14T02:46:47.896Z,20.27
2023-02-14T02:49:51.754Z,18.38
2023-02-14T02:52:46.072Z,21.70
2023-02-14T02:55:56.134Z,20.73
2023-02-14T02:58:29.769Z,16.38
2023-02-14T03:00:59.492Z,18.65
2023-02-14T03:03:48.532Z,22.42
2023-02-14T03:06:15.009Z,18.90
2023-02-14T03:08:43.593Z,18.13
2023-02-14T03:11:13.967Z,23.95
2023-02-14T03:13:51.761Z,27.25
2023-02-14T03:16:39.660Z,24.13
2023-02-14T03:19:11.321Z,16.48
2023-02-14T03:21:46.963Z,22.10
2023-02-14T03:24:31.646Z,16.80
2023-02-14T03:27:15.049Z,17.95
2023-02-14T03:30:01.192Z,18.88
2023-02-14T03:32:45.504Z,19.73
2023-02-14T03:35:20.140Z,17.00
2023-02-14T03:37:57.001Z,15.25
2023-02-14T03:40:49.554Z,13.85
2023-02-14T03:43:22.454Z,15.27
2023-02-14T03:45:55.210Z,15.15
2023-02-14T03:48:24.903Z,17.00
2023-02-14T03:50:52.893Z,14.70
2023-02-14T03:53:24.123Z,16.65
2023-02-14T03:56:13.976Z,18.60
2023-02-14T03:58:45.305Z,20.00
2023-02-14T04:01:23.407Z,17.00
2023-02-14T04:03:56.231Z,17.95
2023-02-14T04:06:22.889Z,18.20
2023-02-14T04:08:49.360Z,20.60
2023-02-14T04:11:16.218Z,19.73
2023-02-14T04:13:44.336Z,24.20
2023-02-14T04:16:10.963Z,16.40
2023-02-14T04:18:56.431Z,18.65
2023-02-14T04:21:23.010Z,17.80
2023-02-14T04:23:49.667Z,16.30
2023-02-14T04:26:16.310Z,19.98
2023-02-14T04:28:42.806Z,15.57
2023-02-14T04:31:11.583Z,18.92
2023-02-14T04:33:39.271Z,13.32
2023-02-14T04:36:14.821Z,14.00
2023-02-14T04:38:41.329Z,15.43
2023-02-14T04:41:07.869Z,14.88
2023-02-14T04:43:35.268Z,16.23
2023-02-14T04:46:01.821Z,16.65
2023-02-14T04:48:28.315Z,18.00
2023-02-14T04:50:55.167Z,14.07
2023-02-14T04:53:21.931Z,17.20
2023-02-14T04:55:49.875Z,15.00
2023-02-14T04:58:16.421Z,13.50
2023-02-14T05:00:42.939Z,14.00
2023-02-14T05:03:10.416Z,14.15
2023-02-14T05:05:36.923Z,12.48
2023-02-14T05:08:03.617Z,15.05
2023-02-14T05:10:30.084Z,13.93
2023-02-14T05:12:56.641Z,12.98
2023-02-14T05:15:23.394Z,15.93
2023-02-14T05:17:49.879Z,18.02
2023-02-14T05:20:18.724Z,13.85
2023-02-14T05:22:45.230Z,12.45
2023-02-14T05:25:11.710Z,13.40
2023-02-14T05:27:38.384Z,13.23
2023-02-14T05:30:05.476Z,13.55
2023-02-14T05:32:32.055Z,14.88
2023-02-14T05:35:00.970Z,15.30
2023-02-14T05:37:27.627Z,12.13
2023-02-14T05:39:54.182Z,15.10
2023-02-14T05:42:20.641Z,13.57
2023-02-14T05:44:48.229Z,13.30
2023-02-14T05:47:14.991Z,14.52
2023-02-14T05:49:41.444Z,16.48
2023-02-14T05:52:08.052Z,13.90
2023-02-14T05:54:34.701Z,13.25
2023-02-14T05:57:01.227Z,16.08
2023-02-14T05:59:32.358Z,14.02
2023-02-14T06:01:58.939Z,14.20
2023-02-14T06:04:25.724Z,15.07
2023-02-14T06:06:52.186Z,15.43
2023-02-14T06:09:20.192Z,17.25
2023-02-14T06:11:46.755Z,13.65
2023-02-14T06:14:14.638Z,19.33
2023-02-14T06:16:41.199Z,17.45
2023-02-14T06:19:07.984Z,18.35
2023-02-14T06:21:34.802Z,14.60
2023-02-14T06:24:01.501Z,15.15
2023-02-14T06:26:29.113Z,17.25
2023-02-14T06:28:56.930Z,19.90
2023-02-14T06:31:24.380Z,14.25
2023-02-14T06:33:52.451Z,17.15
2023-02-14T06:36:19.850Z,16.50
2023-02-14T06:38:47.956Z,18.27
2023-02-14T06:41:17.372Z,20.75
2023-02-14T06:43:44.982Z,25.58
2023-02-14T06:46:11.776Z,19.63
2023-02-14T06:48:38.296Z,19.33
2023-02-14T06:51:04.915Z,18.77
2023-02-14T06:53:36.724Z,23.05
2023-02-14T06:56:06.043Z,22.95
2023-02-14T06:58:32.702Z,18.60
2023-02-14T07:01:00.179Z,24.52
2023-02-14T07:03:27.585Z,16.92
2023-02-14T07:05:55.679Z,22.95
2023-02-14T07:08:22.256Z,24.63
2023-02-14T07:10:51.158Z,19.35
2023-02-14T07:13:18.768Z,19.67
2023-02-14T07:15:47.111Z,22.33
2023-02-14T07:18:13.720Z,24.73
2023-02-14T07:20:40.528Z,22.13
2023-02-14T07:23:07.028Z,20.35
2023-02-14T07:25:33.634Z,25.52
2023-02-14T07:28:00.230Z,25.33
2023-02-14T07:30:26.748Z,24.77
2023-02-14T07:32:53.479Z,23.17
2023-02-14T07:35:22.708Z,20.95
2023-02-14T07:37:52.547Z,17.30
2023-02-14T07:40:23.015Z,24.58
2023-02-14T07:42:58.072Z,19.40
2023-02-14T07:45:25.653Z,19.15
2023-02-14T07:47:54.145Z,20.02
2023-02-14T07:50:23.068Z,18.25
2023-02-14T07:52:51.814Z,15.57
2023-02-14T07:55:22.106Z,23.67
2023-02-14T07:57:49.247Z,20.55
2023-02-14T08:00:16.203Z,21.35
2023-02-14T08:02:42.854Z,23.75
2023-02-14T08:05:09.555Z,23.83
2023-02-14T08:07:36.231Z,21.30
2023-02-14T08:10:02.704Z,25.15
2023-02-14T08:12:48.270Z,23.38
2023-02-14T08:15:33.771Z,25.55
2023-02-14T08:18:00.236Z,28.42
2023-02-14T08:20:26.820Z,28.25
2023-02-14T08:22:53.386Z,23.17
2023-02-14T08:25:20.160Z,25.90
2023-02-14T08:27:49.699Z,24.90
2023-02-14T08:30:16.643Z,25.70
2023-02-14T08:32:43.516Z,26.77
2023-02-14T08:35:10.031Z,29.10
2023-02-14T08:37:36.674Z,24.35
2023-02-14T08:40:03.404Z,22.80
2023-02-14T08:42:30.319Z,25.80
2023-02-14T08:45:16.560Z,30.15
2023-02-14T08:47:48.857Z,24.95
2023-02-14T08:50:17.359Z,23.13
2023-02-14T08:52:44.540Z,26.88
2023-02-14T08:58:21.610Z,21.30
2023-02-14T09:00:48.201Z,24.35
2023-02-14T09:03:14.775Z,21.27
2023-02-14T09:05:41.736Z,22.55
2023-02-14T09:08:08.535Z,22.88
2023-02-14T09:10:47.712Z,23.00
2023-02-14T09:13:15.369Z,22.42
2023-02-14T09:15:41.900Z,25.33
2023-02-14T09:18:16.307Z,20.80
2023-02-14T09:20:45.832Z,25.20
2023-02-14T09:23:12.546Z,21.17
2023-02-14T09:25:39.295Z,22.13
2023-02-14T09:28:59.397Z,24.50
2023-02-14T09:31:59.678Z,21.50
2023-02-14T09:34:46.551Z,23.20
2023-02-14T09:37:33.126Z,23.90
2023-02-14T09:40:00.857Z,24.65
2023-02-14T09:42:45.917Z,24.63
2023-02-14T09:45:25.567Z,23.98
2023-02-14T09:48:06.168Z,23.45
2023-02-14T09:50:47.369Z,21.73
2023-02-14T09:53:49.359Z,23.35
2023-02-14T09:56:42.847Z,25.15
2023-02-14T09:59:25.699Z,25.05
2023-02-14T10:01:59.363Z,24.48
2023-02-14T10:04:39.760Z,23.38
2023-02-14T10:07:35.076Z,24.15
2023-02-14T10:10:08.849Z,24.27
2023-02-14T10:12:46.102Z,25.17
2023-02-14T10:15:41.611Z,20.40
2023-02-14T10:18:24.601Z,24.70
2023-02-14T10:21:05.156Z,23.27
2023-02-14T10:23:47.581Z,18.80
2023-02-14T10:30:13.122Z,22.27
2023-02-14T10:32:46.765Z,21.52
2023-02-14T10:35:22.667Z,21.90
2023-02-14T10:38:40.780Z,23.92
2023-02-14T10:41:24.086Z,20.70
2023-02-14T10:44:14.731Z,19.65
2023-02-14T10:47:02.265Z,20.27
2023-02-14T10:50:11.483Z,19.23
2023-02-14T10:53:01.453Z,23.85
2023-02-14T10:55:54.977Z,19.33
2023-02-14T10:58:28.434Z,18.10
2023-02-14T11:01:03.895Z,18.92
2023-02-14T11:03:32.995Z,20.08
2023-02-14T11:06:01.021Z,18.13
2023-02-14T11:08:33.779Z,19.83
2023-02-14T11:11:13.690Z,19.75
2023-02-14T11:13:40.653Z,18.25
2023-02-14T11:16:31.485Z,21.23
2023-02-14T11:20:16.624Z,19.50
2023-02-14T11:23:48.745Z,20.42
2023-02-14T11:37:43.470Z,19.90
2023-02-14T11:44:23.598Z,22.73
2023-02-14T11:46:55.941Z,20.40
2023-02-14T11:49:57.745Z,21.45
2023-02-14T11:52:28.812Z,21.75
2023-02-14T11:54:58.538Z,18.58
2023-02-14T11:57:52.640Z,17.85
2023-02-14T12:00:30.144Z,20.42
2023-02-14T12:03:20.243Z,22.35
2023-02-14T12:06:06.204Z,21.13
2023-02-14T12:09:19.437Z,20.45
2023-02-14T12:19:54.963Z,22.23
2023-02-14T12:22:34.043Z,20.00
2023-02-14T12:26:17.388Z,20.77
2023-02-14T12:28:54.584Z,19.88
2023-02-14T12:56:51.389Z,21.40
2023-02-14T13:02:24.586Z,21.48
2023-02-14T13:17:36.325Z,20.77
2023-02-14T13:42:34.579Z,20.50
2023-02-14T13:57:27.237Z,20.27
2023-02-14T14:04:35.122Z,20.85
2023-02-14T14:07:30.705Z,19.08
2023-02-14T14:10:36.850Z,17.83
2023-02-14T14:13:03.554Z,19.08
2023-02-14T14:15:31.729Z,22.10
2023-02-14T14:18:13.418Z,20.33
2023-02-14T14:20:42.145Z,19.10
2023-02-14T14:23:37.211Z,23.83
2023-02-14T14:28:50.469Z,19.17
2023-02-14T14:31:20.488Z,20.08
2023-02-14T14:36:23.377Z,19.05
2023-02-14T14:38:54.540Z,19.70
2023-02-14T14:44:15.150Z,22.42
2023-02-14T14:46:42.097Z,18.85
2023-02-14T14:49:11.149Z,26.88
2023-02-14T14:51:43.530Z,20.65
2023-02-14T14:54:12.752Z,22.33
2023-02-14T14:56:51.094Z,17.58
2023-02-14T14:59:40.137Z,18.63
2023-02-14T15:02:28.179Z,20.17
2023-02-14T15:04:57.890Z,18.98
2023-02-14T15:07:32.914Z,20.45
2023-02-14T15:10:00.603Z,19.40
2023-02-14T15:12:46.946Z,19.13
2023-02-14T15:15:16.772Z,20.15
2023-02-14T15:17:44.071Z,22.45
2023-02-14T15:20:18.672Z,18.65
2023-02-14T15:22:50.572Z,20.45
2023-02-14T15:25:21.462Z,17.75
2023-02-14T15:27:51.966Z,18.83
2023-02-14T15:59:01.191Z,20.33
2023-02-14T16:08:54.700Z,17.35
2023-02-14T16:12:29.983Z,18.10
2023-02-14T16:15:19.761Z,26.38
2023-02-14T16:17:50.935Z,18.40
2023-02-14T16:20:53.499Z,23.15
2023-02-14T16:23:25.056Z,17.77
2023-02-14T16:25:53.273Z,20.50
2023-02-14T16:28:30.466Z,20.48
2023-02-14T16:31:16.096Z,19.83
2023-02-14T16:33:42.890Z,20.83
2023-02-14T16:36:32.222Z,20.98
2023-02-14T16:39:02.126Z,17.98
2023-02-14T16:41:30.280Z,22.40
2023-02-14T16:47:30.561Z,19.25
2023-02-14T16:56:26.825Z,18.13
2023-02-14T16:58:58.062Z,22.35
2023-02-14T17:01:27.441Z,22.70
2023-02-14T17:03:57.388Z,21.65
2023-02-14T17:09:25.398Z,20.33
2023-02-14T17:11:54.234Z,21.50
2023-02-14T17:14:30.227Z,22.92
2023-02-14T17:16:58.479Z,22.65
2023-02-14T17:19:25.699Z,21.10
2023-02-14T17:21:53.701Z,24.70
2023-02-14T17:24:20.284Z,21.08
2023-02-14T17:27:12.230Z,24.92
2023-02-14T17:29:52.123Z,24.20
2023-02-14T17:32:44.159Z,29.67
2023-02-14T17:35:11.952Z,22.65
2023-02-14T17:37:39.565Z,22.52
2023-02-14T17:40:10.516Z,19.50
2023-02-14T17:42:38.785Z,22.15
2023-02-14T17:45:11.647Z,21.27
2023-02-14T17:47:39.926Z,20.08
2023-02-14T17:50:07.397Z,22.23
2023-02-14T17:52:34.410Z,22.85
2023-02-14T17:55:00.961Z,19.92
2023-02-14T17:57:27.489Z,20.67
2023-02-14T17:59:54.028Z,22.05
2023-02-14T18:02:20.619Z,20.30
2023-02-14T18:04:48.243Z,21.77
2023-02-14T18:07:14.789Z,24.02
2023-02-14T18:09:41.315Z,26.67
2023-02-14T18:12:10.343Z,31.25
2023-02-14T18:14:41.431Z,28.45
2023-02-14T18:17:08.071Z,31.40
2023-02-14T18:19:37.781Z,31.63
2023-02-14T18:22:06.074Z,31.92
2023-02-14T18:24:32.681Z,25.48
2023-02-14T18:26:59.271Z,29.85
2023-02-14T18:29:25.770Z,23.73
2023-02-14T18:31:52.457Z,24.05
2023-02-14T18:34:19.081Z,25.50
2023-02-14T18:36:45.791Z,21.90
2023-02-14T18:39:23.969Z,26.35
2023-02-14T18:41:53.581Z,21.73
2023-02-14T18:44:45.191Z,23.17
2023-02-14T18:47:15.727Z,23.48
2023-02-14T18:49:55.208Z,25.85
2023-02-14T18:52:25.643Z,26.55
2023-02-14T18:57:53.718Z,24.13
2023-02-14T19:00:23.028Z,23.33
2023-02-14T19:03:01.112Z,23.67
2023-02-14T19:05:36.093Z,23.05
2023-02-14T19:08:19.169Z,24.83
2023-02-14T19:10:46.126Z,28.08
2023-02-14T19:13:29.280Z,28.30
2023-02-14T19:15:56.680Z,27.10
2023-02-14T19:18:26.443Z,28.08
2023-02-14T19:20:53.089Z,24.45
2023-02-14T19:23:19.839Z,24.45
2023-02-14T19:25:46.346Z,29.73
2023-02-14T19:28:13.542Z,33.58
2023-02-14T19:30:40.055Z,32.15
2023-02-14T19:33:06.949Z,29.98
2023-02-14T19:35:36.748Z,30.23
2023-02-14T19:38:53.539Z,29.42
2023-02-14T19:46:02.482Z,26.60
2023-02-14T19:49:19.296Z,22.90
2023-02-14T19:51:53.168Z,22.65
2023-02-14T19:54:21.919Z,24.95
2023-02-14T19:57:28.251Z,23.88
2023-02-14T20:06:51.229Z,29.23
2023-02-14T20:09:18.836Z,28.45
2023-02-14T20:12:47.500Z,31.00
2023-02-14T20:15:35.261Z,30.58
2023-02-14T20:18:04.649Z,33.10
2023-02-14T20:21:18.225Z,41.25
2023-02-14T20:59:46.443Z,21.02
2023-02-14T21:06:15.087Z,25.05
2023-02-14T21:08:42.898Z,26.05
2023-02-14T21:12:15.405Z,25.60
2023-02-14T21:15:47.638Z,24.23
2023-02-14T21:18:44.455Z,24.27
2023-02-14T21:21:47.158Z,27.40
2023-02-14T21:25:16.825Z,24.38
2023-02-14T21:28:51.687Z,22.67
2023-02-14T21:31:57.427Z,23.67
2023-02-14T21:34:41.848Z,24.23
2023-02-14T21:37:22.255Z,26.55
2023-02-14T21:39:52.505Z,27.08
2023-02-14T21:42:27.110Z,27.02
2023-02-14T21:45:59.007Z,24.98
2023-02-14T21:52:51.556Z,25.65
2023-02-14T21:56:02.871Z,27.63
2023-02-14T22:01:47.979Z,25.48
2023-02-14T22:04:20.295Z,21.88
2023-02-14T22:07:39.480Z,23.85
2023-02-14T22:10:55.855Z,20.17
2023-02-14T22:13:24.688Z,19.67
2023-02-14T22:16:45.212Z,20.90
2023-02-14T22:19:45.682Z,23.13
2023-02-14T22:34:06.437Z,22.85
2023-02-14T22:36:45.159Z,21.70
2023-02-14T22:42:33.483Z,19.52
2023-02-14T22:45:14.422Z,20.63
2023-02-14T22:48:50.496Z,20.42
2023-02-14T23:00:32.931Z,18.63
2023-02-14T23:03:09.312Z,19.50
2023-02-14T23:05:40.036Z,20.92
2023-02-14T23:08:32.486Z,18.27
2023-02-14T23:11:25.655Z,18.55
2023-02-14T23:14:13.966Z,17.80
2023-02-14T23:17:07.165Z,17.90
2023-02-14T23:20:23.129Z,17.45
2023-02-14T23:22:50.412Z,18.50
2023-02-14T23:25:26.906Z,19.25
2023-02-14T23:27:53.679Z,17.90
2023-02-14T23:30:20.500Z,18.30
2023-02-14T23:32:47.617Z,17.98
2023-02-14T23:35:17.515Z,17.35
2023-02-14T23:37:56.003Z,23.45
2023-02-14T23:40:25.743Z,22.77
2023-02-14T23:42:54.566Z,22.40
2023-02-14T23:45:38.864Z,17.75
2023-02-14T23:48:24.008Z,23.98
2023-02-14T23:50:50.604Z,16.85
2023-02-14T23:53:17.657Z,20.02
2023-02-14T23:55:47.409Z,21.15
2023-02-14T23:58:14.628Z,19.65
